Brive-Souillac

LFSL · Corrèze, Nouvelle-Aquitaine, 法国

罗盘
风向 的 风向 的 风向 到 风向 180° Brive-Souillac 11/29
风: 8 kt, 3 beaufort

3 kt

7 kt
改变
0 ft 1.000 2.000 3.000 4.000 5.000
METAR LFSL 221430Z AUTO 18008KT 150V230 9999 ///TCU 16/05 Q0999 TEMPO 30015G45KT 3000 SHRA

METAR Brive-Souillac - LFSL/BVE

Brive-Souillac是,法国中的中型机场。 该机场位于纬度45,04010和经度1,48438。 该机场有一条跑道: 11/29. 本场的ICAO机场代码为LFSL。 该机场的IATA代码为BVE。 机场在Bordeaux FIR中。

该航空气象观测是针对Brive-Souillac在2024年2月22日 15:30, 当地时间进行的。

机场观察

风向为180°,速度为8 kt。 风向在150°和230°之间变化。

可见度为10 km 或者更多。

有。 没有观察到天花板。

温度和风寒是16 °C。 露点为5 °C,相对湿度为48%。 海平面上的气压为999 hPa (QNH)。

发展趋势

  • 暂时的

    风来自300°方向,速度为15 kt。 预计45 kt阵风。 可见性变为3 km。 重大天气:阵雨 雨。

白天

今天,太阳从07:44升起,在18:30降落。 这适用于Brive-Souillac,世界夏令时可能有所不同。 当地时间与世界标准时间之间的时差为+1 小时。 当前,没有夏令时有效。

公司介绍

我们没有关于这个机场的公司信息。

体会

到Vliegles.nl去找飞行课程,跳伞和其他飞行体验。 浏览页面,了解Brive-Souillac附近所有可用的活动。 你也可以使用搜索功能来寻找你所在地附近的特定飞行课程、跳伞或其他飞行体验。

跑道

Id 标题 侧风 逆风 侧风 %
11/29 114°-294° 7 kt 3 kt 91 %

逆风成分最大的方向会被突出显示,并用于横风计算。 这并不一定意味着这个方向在使用。

温度 & 天气

温度 16 °C
露点 5 °C
相对湿度 48%
Kp-index 1 (0-9)

白天

日出
07:44
中午
13:07
日落
18:30 (2:35)

小工具

你想在你的网站上有一个关于Brive-Souillac的当前航空天气(METAR)的小部件吗?

显示HTML代码
?>